Time;durP1;ratioP1;P1;durP2;ratioP2;P2;SDS_P1;SDS_P2;PMS_P1;PMS_P2;Temp;Humidity;BMP_temperature;BMP_pressure;BME280_temperature;BME280_humidity;BME280_pressure;Samples;Min_cycle;Max_cycle;Signal;HPM_P1;HPM_P2
2021/11/26 00:00:24;;;;;;;26.17;13.45;;;4.00;64.30;;;;;;5100789;28;20145;-64
2021/11/26 00:02:50;;;;;;;19.40;10.75;;;4.00;63.90;;;;;;5100960;28;20432;-64
2021/11/26 00:05:15;;;;;;;21.77;9.73;;;4.00;63.80;;;;;;5100708;28;20031;-64
2021/11/26 00:07:41;;;;;;;16.63;8.43;;;4.00;63.60;;;;;;5100899;28;20107;-64
2021/11/26 00:10:07;;;;;;;19.77;8.70;;;3.90;63.70;;;;;;5100648;28;20024;-65
2021/11/26 00:12:33;;;;;;;15.32;7.13;;;3.90;63.70;;;;;;5101031;28;20030;-64
2021/11/26 00:17:25;;;;;;;17.15;7.47;;;3.90;63.90;;;;;;5100732;28;20024;-65
2021/11/26 00:19:50;;;;;;;15.77;7.10;;;3.90;64.50;;;;;;5100367;28;20028;-64
2021/11/26 00:22:16;;;;;;;17.98;7.95;;;3.90;64.30;;;;;;5100801;28;20016;-64
2021/11/26 00:24:42;;;;;;;15.00;7.38;;;3.90;64.50;;;;;;5100373;28;20129;-65
2021/11/26 00:27:08;;;;;;;18.73;6.80;;;3.90;64.00;;;;;;5099874;28;20048;-64
2021/11/26 00:29:34;;;;;;;17.08;8.13;;;3.90;64.70;;;;;;5100004;28;20052;-64
2021/11/26 00:32:00;;;;;;;15.15;8.23;;;3.90;64.10;;;;;;5100188;28;20074;-64
2021/11/26 00:34:26;;;;;;;14.43;7.72;;;3.90;64.00;;;;;;5100221;28;20048;-64
2021/11/26 00:36:51;;;;;;;13.40;7.47;;;3.90;64.10;;;;;;5100114;28;20035;-64
2021/11/26 00:39:18;;;;;;;17.15;7.72;;;3.90;64.30;;;;;;5100093;28;20023;-64
2021/11/26 00:41:44;;;;;;;17.00;7.15;;;3.90;63.80;;;;;;5098689;28;20453;-64
2021/11/26 00:44:10;;;;;;;16.67;7.28;;;3.90;63.50;;;;;;5100111;28;20073;-64
2021/11/26 00:46:36;;;;;;;16.13;6.85;;;3.90;63.50;;;;;;5099954;28;20024;-64
2021/11/26 00:49:03;;;;;;;14.32;6.72;;;3.80;64.30;;;;;;5100012;28;20028;-64
2021/11/26 00:51:30;;;;;;;16.60;6.90;;;3.80;64.20;;;;;;5100016;28;20103;-65
2021/11/26 00:53:57;;;;;;;17.33;7.35;;;3.80;64.20;;;;;;5099873;28;20020;-64
2021/11/26 00:56:23;;;;;;;16.90;7.15;;;3.80;64.20;;;;;;5099848;28;20028;-64
2021/11/26 00:58:49;;;;;;;12.15;6.97;;;3.80;64.00;;;;;;5100106;28;20032;-69
2021/11/26 01:01:15;;;;;;;14.15;6.68;;;3.80;63.50;;;;;;5099953;28;20031;-64
2021/11/26 01:03:41;;;;;;;15.10;7.45;;;3.70;64.00;;;;;;5099673;28;20450;-64
2021/11/26 01:06:07;;;;;;;14.75;6.82;;;3.70;63.80;;;;;;5098755;28;20032;-64
2021/11/26 01:08:33;;;;;;;14.07;7.45;;;3.70;63.60;;;;;;5099906;28;20036;-64
2021/11/26 01:10:59;;;;;;;15.35;6.85;;;3.70;64.30;;;;;;5099659;28;20032;-64
2021/11/26 01:13:26;;;;;;;14.40;7.65;;;3.60;63.90;;;;;;5099338;28;20388;-65
2021/11/26 01:15:52;;;;;;;15.10;7.65;;;3.60;64.30;;;;;;5099402;28;20031;-65
2021/11/26 01:18:19;;;;;;;18.33;7.95;;;3.60;63.80;;;;;;5099365;28;20028;-65
2021/11/26 01:20:46;;;;;;;15.75;7.40;;;3.60;63.60;;;;;;5099232;28;20024;-65
2021/11/26 01:23:12;;;;;;;15.10;7.55;;;3.60;63.80;;;;;;5099217;28;20032;-64
2021/11/26 01:25:39;;;;;;;14.93;7.22;;;3.60;64.50;;;;;;5098917;28;20196;-64
2021/11/26 01:28:06;;;;;;;16.83;7.10;;;3.50;64.60;;;;;;5099225;28;20032;-64
2021/11/26 01:30:38;;;;;;;14.23;7.70;;;3.50;64.10;;;;;;5099113;28;20044;-64
2021/11/26 01:33:08;;;;;;;17.85;9.63;;;3.50;64.60;;;;;;5098821;28;20039;-65
2021/11/26 01:35:35;;;;;;;19.00;9.50;;;3.50;65.00;;;;;;5099052;28;20024;-64
2021/11/26 01:38:04;;;;;;;23.00;11.10;;;3.50;65.00;;;;;;5098934;28;20024;-65
2021/11/26 01:40:29;;;;;;;20.85;9.07;;;3.50;64.20;;;;;;5099309;28;20100;-65
2021/11/26 01:42:56;;;;;;;22.23;8.88;;;3.40;64.50;;;;;;5098992;28;20059;-64
2021/11/26 01:45:22;;;;;;;22.02;9.35;;;3.40;64.70;;;;;;5098783;28;20039;-65
2021/11/26 01:47:48;;;;;;;16.30;8.32;;;3.40;64.50;;;;;;5098919;28;20059;-65
2021/11/26 01:50:15;;;;;;;16.02;8.20;;;3.40;64.30;;;;;;5098852;28;20020;-65
2021/11/26 01:52:41;;;;;;;16.02;7.53;;;3.40;64.90;;;;;;5098852;28;20024;-64
2021/11/26 01:55:09;;;;;;;16.92;7.78;;;3.40;64.60;;;;;;5098792;28;20023;-65
2021/11/26 01:57:35;;;;;;;15.50;7.43;;;3.40;64.20;;;;;;5099006;28;20028;-65
2021/11/26 02:00:03;;;;;;;15.73;7.00;;;3.50;65.20;;;;;;5098411;28;20020;-65
2021/11/26 02:02:28;;;;;;;13.82;7.00;;;3.50;65.00;;;;;;5098553;28;20490;-64
2021/11/26 02:04:54;;;;;;;16.65;8.27;;;3.70;64.70;;;;;;5098325;28;20024;-64
2021/11/26 02:07:20;;;;;;;13.73;7.63;;;3.70;64.50;;;;;;5098517;28;20063;-64
2021/11/26 02:09:46;;;;;;;17.33;7.47;;;3.80;65.00;;;;;;5098629;28;20040;-65
2021/11/26 02:12:11;;;;;;;17.90;8.15;;;3.90;65.00;;;;;;5098486;28;20467;-65
2021/11/26 02:14:38;;;;;;;15.30;7.15;;;3.90;65.60;;;;;;5098426;28;20024;-64
2021/11/26 02:17:04;;;;;;;14.45;7.80;;;3.90;65.30;;;;;;5098320;28;20533;-64
2021/11/26 02:19:30;;;;;;;20.60;8.88;;;3.90;66.00;;;;;;5098368;28;20042;-65
2021/11/26 02:21:56;;;;;;;16.38;7.07;;;3.90;65.20;;;;;;5098072;28;20024;-65
2021/11/26 02:24:22;;;;;;;14.45;7.57;;;4.00;65.00;;;;;;5098138;28;20082;-65
2021/11/26 02:26:50;;;;;;;15.38;7.75;;;4.00;64.60;;;;;;5097587;28;20048;-64
2021/11/26 02:29:18;;;;;;;15.45;6.93;;;4.00;64.40;;;;;;5098265;28;20497;-64
2021/11/26 02:31:45;;;;;;;14.25;6.72;;;4.00;64.60;;;;;;5097918;28;20009;-65
2021/11/26 02:34:11;;;;;;;15.13;7.55;;;4.00;65.30;;;;;;5097609;28;20028;-65
2021/11/26 02:36:37;;;;;;;14.95;6.97;;;4.00;64.70;;;;;;5097865;28;20103;-65
2021/11/26 02:39:09;;;;;;;16.65;8.68;;;3.90;64.90;;;;;;5097881;28;20474;-65
2021/11/26 02:41:40;;;;;;;14.25;7.55;;;3.90;64.40;;;;;;5097913;28;20099;-64
2021/11/26 02:44:05;;;;;;;14.32;6.47;;;3.90;64.70;;;;;;5097791;28;20027;-65
2021/11/26 02:46:32;;;;;;;14.45;7.00;;;4.00;65.00;;;;;;5097798;28;20081;-65
2021/11/26 02:48:58;;;;;;;13.32;7.50;;;4.00;65.70;;;;;;5097612;28;20039;-65
2021/11/26 02:51:23;;;;;;;15.32;6.78;;;4.00;65.10;;;;;;5097735;28;20016;-64
2021/11/26 02:53:49;;;;;;;13.50;6.32;;;4.00;65.20;;;;;;5097877;28;20060;-65
2021/11/26 02:56:15;;;;;;;15.43;5.47;;;4.00;65.80;;;;;;5097590;28;20052;-66
2021/11/26 02:58:41;;;;;;;10.10;5.90;;;4.10;65.80;;;;;;5097364;28;20110;-64
2021/11/26 03:01:07;;;;;;;12.50;6.60;;;4.10;66.00;;;;;;5097785;28;20021;-64
2021/11/26 03:03:32;;;;;;;14.30;6.47;;;4.20;65.10;;;;;;5097946;28;20081;-65
2021/11/26 03:06:02;;;;;;;12.20;5.72;;;4.30;65.30;;;;;;5097712;28;20043;-65
2021/11/26 03:08:29;;;;;;;14.10;6.20;;;4.40;65.50;;;;;;5097959;28;20032;-65
2021/11/26 03:10:59;;;;;;;13.43;5.88;;;4.40;65.30;;;;;;5097407;28;20095;-64
2021/11/26 03:13:25;;;;;;;14.18;5.60;;;4.50;65.90;;;;;;5097708;28;20088;-65
2021/11/26 03:15:51;;;;;;;14.18;5.90;;;4.50;65.40;;;;;;5097494;28;20021;-64
2021/11/26 03:18:19;;;;;;;12.27;4.90;;;4.60;65.90;;;;;;5097788;28;20024;-65
2021/11/26 03:20:46;;;;;;;14.73;5.18;;;4.70;66.20;;;;;;5097784;28;20024;-64
2021/11/26 03:23:13;;;;;;;12.88;5.78;;;4.80;66.90;;;;;;5097415;28;20036;-64
2021/11/26 03:25:41;;;;;;;15.18;5.32;;;4.90;66.60;;;;;;5097292;28;20527;-65
2021/11/26 03:28:09;;;;;;;12.60;5.10;;;5.00;67.40;;;;;;5098639;28;20028;-65
2021/11/26 03:30:35;;;;;;;14.05;4.85;;;5.10;66.90;;;;;;5101330;28;20099;-65
2021/11/26 03:33:01;;;;;;;15.55;5.20;;;5.20;67.30;;;;;;5101363;28;20031;-65
2021/11/26 03:35:27;;;;;;;13.20;5.57;;;5.20;66.60;;;;;;5101221;28;20504;-64
2021/11/26 03:37:54;;;;;;;13.90;4.95;;;5.30;67.30;;;;;;5101461;28;20032;-65
2021/11/26 03:40:22;;;;;;;17.45;4.90;;;5.40;66.40;;;;;;5101201;28;20081;-64
2021/11/26 03:42:49;;;;;;;13.07;4.68;;;5.50;66.50;;;;;;5101114;28;20080;-65
2021/11/26 03:45:17;;;;;;;13.57;4.20;;;5.50;66.80;;;;;;5101141;28;20020;-65
2021/11/26 03:47:43;;;;;;;13.75;4.85;;;5.60;66.30;;;;;;5099630;28;20028;-64
2021/11/26 03:50:10;;;;;;;16.83;4.40;;;5.60;66.20;;;;;;5100964;28;20020;-65
2021/11/26 03:52:37;;;;;;;9.65;3.50;;;5.70;66.40;;;;;;5100896;28;20104;-64
2021/11/26 03:55:08;;;;;;;10.75;4.55;;;5.70;66.00;;;;;;5101126;28;20068;-65
2021/11/26 03:57:34;;;;;;;16.67;4.65;;;5.70;65.90;;;;;;5101220;28;20086;-65
2021/11/26 04:00:00;;;;;;;10.32;3.80;;;5.70;65.90;;;;;;5101004;28;20020;-65
2021/11/26 04:02:25;;;;;;;15.88;3.90;;;5.70;66.00;;;;;;5100811;28;20024;-65
2021/11/26 04:04:51;;;;;;;11.15;4.05;;;5.70;66.20;;;;;;5100503;28;20081;-64
2021/11/26 04:07:17;;;;;;;11.98;5.00;;;5.70;65.60;;;;;;5100574;28;20077;-64
2021/11/26 04:09:43;;;;;;;10.57;4.15;;;5.70;65.60;;;;;;5100738;28;20032;-64
2021/11/26 04:12:09;;;;;;;10.55;4.20;;;5.80;65.90;;;;;;5100616;28;20028;-65
2021/11/26 04:14:35;;;;;;;18.95;5.15;;;5.70;66.40;;;;;;5100622;28;20380;-65
2021/11/26 04:17:01;;;;;;;12.20;4.40;;;5.70;66.10;;;;;;5100584;28;20031;-64
2021/11/26 04:19:28;;;;;;;12.45;4.10;;;5.70;65.70;;;;;;5100541;28;20386;-65
2021/11/26 04:21:54;;;;;;;12.80;3.90;;;5.70;66.30;;;;;;5100634;28;20105;-65
2021/11/26 04:24:20;;;;;;;12.98;4.15;;;5.70;65.90;;;;;;5100619;28;20379;-64
2021/11/26 04:26:45;;;;;;;12.25;4.03;;;5.70;66.40;;;;;;5099995;28;20056;-65
2021/11/26 04:29:11;;;;;;;9.57;4.60;;;5.70;66.30;;;;;;5100468;28;20027;-65
2021/11/26 04:31:41;;;;;;;8.70;3.17;;;5.60;66.50;;;;;;5100237;28;20030;-65
2021/11/26 04:34:08;;;;;;;8.45;3.20;;;5.60;66.00;;;;;;5100202;28;20039;-64
2021/11/26 04:36:34;;;;;;;11.35;3.58;;;5.60;66.00;;;;;;5100097;28;20027;-65
2021/11/26 04:38:59;;;;;;;12.23;3.30;;;5.50;66.70;;;;;;5099053;28;20020;-65
2021/11/26 04:41:25;;;;;;;13.82;4.93;;;5.50;66.50;;;;;;5099581;28;20028;-67
2021/11/26 04:43:51;;;;;;;13.63;3.40;;;5.40;66.70;;;;;;5100164;28;20024;-66
2021/11/26 04:46:17;;;;;;;8.77;3.95;;;5.40;66.40;;;;;;5100169;28;20074;-65
2021/11/26 04:48:42;;;;;;;7.88;3.10;;;5.40;66.50;;;;;;5100287;28;20016;-65
2021/11/26 04:51:08;;;;;;;15.95;3.30;;;5.40;67.00;;;;;;5100068;28;20024;-65
2021/11/26 04:53:34;;;;;;;10.73;3.38;;;5.40;67.10;;;;;;5099842;28;20046;-65
2021/11/26 04:56:00;;;;;;;11.32;2.95;;;5.40;67.70;;;;;;5099713;28;20059;-64
2021/11/26 04:58:25;;;;;;;11.23;3.42;;;5.40;67.60;;;;;;5099775;28;20042;-65
2021/11/26 05:00:51;;;;;;;9.82;2.80;;;5.40;67.50;;;;;;5098406;28;20059;-64
2021/11/26 05:03:17;;;;;;;9.38;2.92;;;5.50;67.20;;;;;;5099773;28;20107;-65
2021/11/26 05:05:43;;;;;;;8.85;2.97;;;5.50;67.60;;;;;;5099748;28;20230;-65
2021/11/26 05:08:08;;;;;;;8.93;3.10;;;5.50;67.30;;;;;;5099638;28;20027;-64
2021/11/26 05:10:34;;;;;;;12.00;2.75;;;5.60;67.20;;;;;;5099774;28;20023;-64
2021/11/26 05:13:01;;;;;;;7.30;2.40;;;5.60;66.90;;;;;;5099371;28;20552;-65
2021/11/26 05:15:29;;;;;;;8.10;2.55;;;5.60;67.10;;;;;;5099461;28;20028;-65
2021/11/26 05:18:01;;;;;;;7.70;2.83;;;5.60;67.00;;;;;;5099567;28;20024;-65
2021/11/26 05:20:29;;;;;;;9.48;2.33;;;5.60;66.90;;;;;;5099283;28;20042;-65
2021/11/26 05:22:56;;;;;;;7.32;2.38;;;5.60;66.90;;;;;;5099320;28;20040;-64
2021/11/26 05:25:22;;;;;;;9.57;3.67;;;5.60;66.60;;;;;;5099227;28;20587;-66
2021/11/26 05:27:49;;;;;;;12.48;2.90;;;5.60;67.10;;;;;;5099287;28;20028;-64
2021/11/26 05:30:15;;;;;;;9.73;2.47;;;5.60;67.30;;;;;;5099319;28;20031;-65
2021/11/26 05:32:41;;;;;;;9.20;3.28;;;5.60;66.90;;;;;;5098820;28;20075;-64
2021/11/26 05:35:12;;;;;;;8.65;2.65;;;5.60;67.20;;;;;;5099231;28;20109;-65
2021/11/26 05:37:39;;;;;;;7.55;2.45;;;5.60;66.80;;;;;;5099257;28;20027;-65
2021/11/26 05:40:07;;;;;;;8.23;2.55;;;5.60;67.20;;;;;;5099138;28;20685;-65
2021/11/26 05:42:34;;;;;;;15.80;3.00;;;5.60;67.10;;;;;;5098764;28;20020;-64
2021/11/26 05:45:00;;;;;;;10.57;3.88;;;5.50;67.30;;;;;;5098801;28;20059;-65
2021/11/26 05:47:26;;;;;;;19.52;6.65;;;5.50;67.20;;;;;;5098961;28;20093;-65
2021/11/26 05:49:52;;;;;;;21.75;7.18;;;5.50;67.90;;;;;;5098640;28;20032;-64
2021/11/26 05:52:18;;;;;;;16.80;6.40;;;5.50;67.60;;;;;;5098350;28;20051;-64
2021/11/26 05:54:44;;;;;;;44.53;21.02;;;5.60;67.60;;;;;;5098639;28;20020;-64
2021/11/26 05:57:09;;;;;;;29.42;15.00;;;5.60;68.20;;;;;;5098830;28;20016;-65
2021/11/26 05:59:35;;;;;;;13.50;5.60;;;5.70;67.10;;;;;;5098578;28;20051;-65
2021/11/26 06:02:01;;;;;;;20.52;9.65;;;5.70;69.30;;;;;;5098683;28;20016;-65
2021/11/26 06:04:30;;;;;;;16.52;8.68;;;5.80;69.50;;;;;;5098401;28;20099;-64
2021/11/26 06:06:56;;;;;;;16.27;7.32;;;5.90;68.60;;;;;;5098594;28;20019;-65
2021/11/26 06:09:21;;;;;;;17.42;8.95;;;6.00;68.10;;;;;;5098303;28;20025;-65
2021/11/26 06:11:48;;;;;;;21.17;9.88;;;6.00;67.70;;;;;;5098114;28;20387;-65
2021/11/26 06:14:14;;;;;;;13.43;4.70;;;6.10;69.30;;;;;;5098187;28;20054;-65
2021/11/26 06:16:40;;;;;;;13.43;6.70;;;6.10;69.00;;;;;;5098462;28;20030;-65
2021/11/26 06:19:05;;;;;;;10.73;4.30;;;6.10;69.00;;;;;;5098393;28;20048;-64
2021/11/26 06:21:31;;;;;;;11.73;3.63;;;6.10;69.20;;;;;;5098510;28;20028;-65
2021/11/26 06:23:57;;;;;;;9.55;3.67;;;6.10;68.80;;;;;;5098026;28;20031;-65
2021/11/26 06:26:24;;;;;;;17.15;4.35;;;6.20;68.30;;;;;;5097911;28;20097;-65
2021/11/26 06:28:50;;;;;;;20.70;11.82;;;6.20;68.10;;;;;;5097952;28;20487;-64
2021/11/26 06:31:18;;;;;;;21.40;9.70;;;6.20;68.40;;;;;;5097948;28;20130;-65
2021/11/26 06:33:44;;;;;;;23.48;11.02;;;6.20;68.00;;;;;;5097978;28;20028;-65
2021/11/26 06:36:10;;;;;;;24.25;11.48;;;6.20;68.00;;;;;;5097011;28;20103;-64
2021/11/26 06:38:35;;;;;;;16.45;7.32;;;6.20;68.70;;;;;;5097848;28;20478;-65
2021/11/26 06:41:01;;;;;;;18.40;6.93;;;6.20;69.80;;;;;;5097952;28;20028;-64
2021/11/26 06:43:27;;;;;;;16.98;5.20;;;6.30;69.30;;;;;;5097881;28;20387;-65
2021/11/26 06:45:54;;;;;;;12.77;5.18;;;6.30;68.40;;;;;;5096555;28;20077;-64
2021/11/26 06:48:20;;;;;;;19.15;7.72;;;6.40;68.50;;;;;;5097540;28;20024;-64
2021/11/26 06:50:46;;;;;;;21.13;5.07;;;6.40;68.50;;;;;;5097877;28;20024;-64
2021/11/26 06:53:12;;;;;;;14.43;4.10;;;6.40;68.00;;;;;;5097878;28;20022;-64
2021/11/26 06:55:38;;;;;;;13.82;4.03;;;6.50;68.80;;;;;;5096790;28;20035;-64
2021/11/26 06:58:04;;;;;;;12.77;4.65;;;6.50;68.80;;;;;;5097231;28;20031;-64
2021/11/26 07:00:30;;;;;;;9.45;4.13;;;6.60;70.20;;;;;;5097480;28;20028;-64
2021/11/26 07:02:55;;;;;;;12.63;4.15;;;6.60;69.20;;;;;;5096929;28;20483;-64
2021/11/26 07:05:22;;;;;;;11.65;4.32;;;6.70;69.80;;;;;;5097442;28;20035;-65
2021/11/26 07:07:48;;;;;;;13.73;3.65;;;6.70;69.20;;;;;;5097305;28;20077;-64
2021/11/26 07:10:14;;;;;;;12.95;3.50;;;6.70;68.80;;;;;;5097555;28;20020;-64
2021/11/26 07:12:40;;;;;;;11.10;3.17;;;6.70;70.20;;;;;;5097395;28;20387;-64
2021/11/26 07:15:08;;;;;;;13.10;3.70;;;6.70;69.20;;;;;;5097544;28;20031;-64
2021/11/26 07:17:35;;;;;;;16.60;3.55;;;6.70;68.50;;;;;;5097342;28;20016;-64
2021/11/26 07:20:02;;;;;;;12.52;3.70;;;6.80;68.80;;;;;;5097157;28;20024;-64
2021/11/26 07:22:28;;;;;;;9.13;2.45;;;6.80;69.30;;;;;;5097289;28;20024;-64
2021/11/26 07:24:54;;;;;;;11.30;3.00;;;6.90;69.20;;;;;;5097247;28;20028;-64
2021/11/26 07:27:20;;;;;;;12.50;2.53;;;6.90;68.60;;;;;;5097243;28;20039;-65
2021/11/26 07:29:46;;;;;;;22.10;4.25;;;6.90;69.90;;;;;;5097294;28;20024;-64
2021/11/26 07:32:12;;;;;;;18.67;3.35;;;7.00;69.20;;;;;;5097258;28;20426;-64
2021/11/26 07:34:40;;;;;;;13.32;3.55;;;7.00;68.60;;;;;;5097526;28;20027;-65
2021/11/26 07:37:07;;;;;;;21.63;4.30;;;7.00;68.90;;;;;;5097190;28;20099;-64
2021/11/26 07:39:36;;;;;;;12.85;2.85;;;7.00;68.80;;;;;;5096782;28;20039;-64
2021/11/26 07:42:03;;;;;;;10.02;3.35;;;7.00;68.80;;;;;;5097265;28;20023;-64
2021/11/26 07:44:31;;;;;;;14.60;5.68;;;7.00;68.60;;;;;;5097423;28;20391;-64
2021/11/26 07:46:58;;;;;;;12.77;3.35;;;7.00;69.00;;;;;;5097398;28;20099;-64
2021/11/26 07:49:25;;;;;;;12.52;3.17;;;7.00;68.60;;;;;;5097086;28;20500;-64
2021/11/26 07:51:51;;;;;;;11.13;4.78;;;7.00;67.70;;;;;;5097220;28;20062;-65
2021/11/26 07:54:17;;;;;;;16.30;6.30;;;7.00;68.60;;;;;;5096568;28;20487;-60
2021/11/26 07:56:43;;;;;;;14.13;3.80;;;7.00;69.10;;;;;;5096818;28;20100;-61
2021/11/26 07:59:09;;;;;;;10.75;2.85;;;7.00;68.40;;;;;;5097260;28;20059;-62
2021/11/26 08:01:35;;;;;;;12.57;3.28;;;7.00;68.40;;;;;;5097057;28;20479;-63
2021/11/26 08:04:01;;;;;;;14.85;5.25;;;7.10;68.20;;;;;;5097657;28;20031;-64
2021/11/26 08:06:27;;;;;;;12.57;4.63;;;7.10;68.80;;;;;;5097049;28;20445;-61
2021/11/26 08:08:53;;;;;;;10.35;3.75;;;7.20;68.10;;;;;;5096856;28;20024;-62
2021/11/26 08:11:19;;;;;;;16.15;3.03;;;7.20;68.30;;;;;;5097045;28;20031;-62
2021/11/26 08:13:45;;;;;;;16.80;3.60;;;7.30;68.60;;;;;;5097666;28;20020;-61
2021/11/26 08:16:11;;;;;;;103.32;49.95;;;7.30;68.90;;;;;;5101045;28;20020;-62
2021/11/26 08:18:38;;;;;;;23.90;8.25;;;7.40;68.60;;;;;;5100676;28;20028;-65
2021/11/26 08:21:04;;;;;;;15.25;4.45;;;7.50;68.90;;;;;;5100240;28;20102;-66
2021/11/26 08:23:30;;;;;;;15.02;3.60;;;7.50;68.80;;;;;;5100650;28;20028;-62
2021/11/26 08:25:58;;;;;;;28.13;19.52;;;7.60;69.00;;;;;;5099006;28;20047;-65
2021/11/26 08:28:24;;;;;;;12.75;3.03;;;7.70;69.10;;;;;;5099009;28;20020;-63
2021/11/26 08:30:50;;;;;;;16.15;3.35;;;7.80;68.40;;;;;;5100474;28;20026;-63
2021/11/26 08:33:16;;;;;;;11.27;2.78;;;7.90;68.80;;;;;;5100763;28;20055;-63
2021/11/26 08:35:41;;;;;;;22.10;9.05;;;8.00;69.20;;;;;;5100292;28;20446;-63
2021/11/26 08:38:07;;;;;;;13.60;3.35;;;8.00;68.80;;;;;;5100288;28;20073;-62
2021/11/26 08:40:33;;;;;;;14.43;3.03;;;8.10;69.10;;;;;;5100147;28;20084;-65
2021/11/26 08:42:59;;;;;;;13.15;5.50;;;8.20;69.10;;;;;;5100232;28;20024;-64
2021/11/26 08:45:25;;;;;;;11.77;3.15;;;8.40;69.30;;;;;;5100381;28;20035;-63
2021/11/26 08:47:51;;;;;;;13.00;2.63;;;8.50;69.00;;;;;;5099867;28;20020;-66
2021/11/26 08:50:19;;;;;;;25.13;10.38;;;8.60;69.00;;;;;;5099657;28;20028;-63
2021/11/26 08:52:46;;;;;;;20.58;8.10;;;8.70;69.10;;;;;;5100236;28;20016;-68
2021/11/26 08:55:15;;;;;;;13.20;4.07;;;8.80;69.10;;;;;;5100063;28;20020;-65
2021/11/26 08:57:47;;;;;;;36.33;15.02;;;8.80;68.80;;;;;;5099985;28;20028;-63
2021/11/26 09:00:14;;;;;;;25.20;11.40;;;8.90;68.90;;;;;;5099661;28;20032;-64
2021/11/26 09:02:40;;;;;;;38.63;23.15;;;8.90;68.80;;;;;;5099868;28;20055;-66
2021/11/26 09:05:06;;;;;;;17.02;6.10;;;8.90;69.20;;;;;;5099584;28;20028;-62
2021/11/26 09:07:32;;;;;;;11.85;2.30;;;8.90;68.90;;;;;;5099691;28;20054;-63
2021/11/26 09:09:58;;;;;;;13.68;4.97;;;9.00;69.20;;;;;;5098763;28;20032;-63
2021/11/26 09:12:27;;;;;;;12.00;2.70;;;9.00;69.70;;;;;;5099391;28;20020;-65
2021/11/26 09:14:53;;;;;;;17.45;5.40;;;9.00;70.20;;;;;;5099288;28;20026;-64
2021/11/26 09:17:20;;;;;;;17.80;8.05;;;9.00;70.90;;;;;;5099276;28;20052;-63
2021/11/26 09:19:46;;;;;;;11.98;4.55;;;9.00;69.70;;;;;;5099149;28;20030;-63
2021/11/26 09:22:12;;;;;;;14.32;7.15;;;9.00;69.60;;;;;;5099199;28;20016;-62
2021/11/26 09:24:38;;;;;;;16.40;7.78;;;9.00;69.70;;;;;;5099173;28;20016;-62
2021/11/26 09:27:04;;;;;;;22.88;11.38;;;9.10;69.80;;;;;;5098193;28;20624;-63
2021/11/26 09:29:30;;;;;;;23.45;14.82;;;9.10;69.70;;;;;;5099512;28;20421;-62
2021/11/26 09:31:56;;;;;;;15.32;3.58;;;9.10;69.50;;;;;;5098838;28;20024;-62
2021/11/26 09:34:22;;;;;;;13.63;4.25;;;9.10;69.50;;;;;;5098785;28;20047;-62
2021/11/26 09:36:48;;;;;;;10.40;3.00;;;9.10;69.30;;;;;;5099013;28;20021;-62
2021/11/26 09:39:14;;;;;;;12.43;2.42;;;9.10;69.50;;;;;;5098582;28;20054;-63
2021/11/26 09:41:40;;;;;;;17.50;5.20;;;9.00;69.90;;;;;;5098858;28;20471;-62
2021/11/26 09:44:07;;;;;;;14.85;2.33;;;9.00;70.20;;;;;;5098989;28;20039;-63
2021/11/26 09:46:37;;;;;;;10.13;2.60;;;9.00;70.60;;;;;;5098574;28;20031;-63
2021/11/26 09:49:05;;;;;;;8.98;2.60;;;9.00;70.70;;;;;;5098556;28;20024;-62
2021/11/26 09:51:31;;;;;;;16.05;5.80;;;9.10;70.20;;;;;;5098749;28;20403;-62
2021/11/26 09:53:57;;;;;;;8.05;3.40;;;9.10;70.60;;;;;;5098810;28;20573;-63
2021/11/26 09:56:24;;;;;;;9.80;2.50;;;9.20;70.20;;;;;;5098603;28;20020;-63
2021/11/26 09:58:50;;;;;;;9.80;3.97;;;9.20;71.60;;;;;;5098489;28;20036;-63
2021/11/26 10:01:16;;;;;;;6.30;2.28;;;9.30;71.80;;;;;;5098448;28;20555;-61
2021/11/26 10:03:47;;;;;;;11.88;3.40;;;9.90;72.10;;;;;;5098884;28;20095;-61
2021/11/26 10:06:38;;;;;;;9.07;2.42;;;11.00;70.40;;;;;;5098982;28;20024;-60
2021/11/26 10:09:22;;;;;;;11.77;2.80;;;12.20;68.60;;;;;;5098281;28;20028;-61
2021/11/26 10:12:02;;;;;;;5.63;1.83;;;12.70;66.90;;;;;;5099019;28;20070;-61
2021/11/26 10:14:33;;;;;;;11.60;2.88;;;12.90;66.20;;;;;;5098450;28;20032;-61
2021/11/26 10:17:25;;;;;;;9.65;2.00;;;12.90;66.00;;;;;;5098416;28;20545;-62
2021/11/26 10:20:04;;;;;;;9.93;2.28;;;12.80;66.00;;;;;;5098074;28;20031;-61
2021/11/26 10:22:42;;;;;;;14.15;2.60;;;12.90;67.10;;;;;;5098130;28;20028;-62
2021/11/26 10:25:19;;;;;;;10.48;2.30;;;13.40;66.30;;;;;;5097869;28;20421;-61
2021/11/26 10:28:01;;;;;;;15.23;2.70;;;13.40;65.70;;;;;;5097654;28;20028;-61
2021/11/26 10:30:30;;;;;;;13.00;2.60;;;13.50;65.70;;;;;;5098249;28;20035;-60
2021/11/26 10:33:21;;;;;;;9.32;2.83;;;13.90;66.30;;;;;;5098035;28;20102;-60
2021/11/26 10:35:53;;;;;;;9.70;2.60;;;14.60;65.10;;;;;;5097901;28;20031;-61
2021/11/26 10:38:23;;;;;;;19.20;3.28;;;14.80;64.70;;;;;;5097640;28;20028;-62
2021/11/26 10:40:59;;;;;;;16.27;2.63;;;14.50;64.30;;;;;;5098079;28;20073;-61
2021/11/26 10:49:31;;;;;;;13.70;3.25;;;14.20;64.70;;;;;;5097860;28;20115;-60
2021/11/26 11:00:02;;;;;;;18.25;3.65;;;15.50;62.80;;;;;;5097902;28;20032;-62
2021/11/26 11:02:37;;;;;;;21.10;4.35;;;15.40;62.50;;;;;;5097552;28;20036;-62
2021/11/26 11:05:08;;;;;;;17.45;2.85;;;14.80;63.10;;;;;;5097615;28;20028;-62
2021/11/26 11:07:44;;;;;;;11.75;3.60;;;14.10;63.80;;;;;;5097653;28;20032;-62
2021/11/26 11:10:15;;;;;;;16.35;2.83;;;13.70;64.40;;;;;;5097721;28;20386;-62
2021/11/26 11:12:40;;;;;;;14.02;3.05;;;13.50;65.00;;;;;;5096687;28;20025;-62
2021/11/26 11:15:09;;;;;;;15.90;3.00;;;13.50;65.40;;;;;;5097496;28;20137;-62
2021/11/26 11:17:36;;;;;;;13.43;3.35;;;13.90;65.90;;;;;;5097799;28;20024;-62
2021/11/26 11:20:11;;;;;;;13.18;2.95;;;14.10;65.10;;;;;;5097444;28;20028;-61
2021/11/26 11:22:37;;;;;;;14.32;3.17;;;14.10;64.60;;;;;;5097477;28;20028;-62
2021/11/26 11:25:06;;;;;;;19.55;5.97;;;13.80;64.60;;;;;;5097525;28;20020;-61
2021/11/26 11:27:33;;;;;;;29.35;9.13;;;13.50;65.20;;;;;;5097190;28;20032;-62
2021/11/26 11:30:00;;;;;;;25.10;7.35;;;13.20;65.40;;;;;;5097373;28;20714;-62
2021/11/26 11:32:26;;;;;;;98.38;34.35;;;12.90;66.10;;;;;;5096630;28;20021;-62
2021/11/26 11:34:54;;;;;;;48.85;16.67;;;12.60;66.80;;;;;;5097080;28;20025;-62
2021/11/26 11:37:27;;;;;;;19.52;5.82;;;12.40;67.10;;;;;;5096916;28;20062;-62
2021/11/26 11:39:56;;;;;;;30.70;15.97;;;12.30;66.90;;;;;;5097193;28;20080;-61
2021/11/26 11:42:28;;;;;;;20.70;6.13;;;12.20;67.20;;;;;;5097329;28;20020;-62
2021/11/26 11:45:07;;;;;;;24.02;7.78;;;12.00;67.20;;;;;;5097306;28;20081;-61
2021/11/26 11:47:33;;;;;;;26.30;9.63;;;11.90;67.60;;;;;;5096969;28;20053;-61
2021/11/26 11:50:13;;;;;;;22.05;6.68;;;11.80;68.00;;;;;;5099976;28;20564;-61
2021/11/26 11:52:46;;;;;;;21.83;6.30;;;11.80;68.60;;;;;;5100990;28;20028;-62
2021/11/26 11:55:21;;;;;;;13.10;4.53;;;12.20;68.40;;;;;;5100987;28;20467;-62
2021/11/26 11:57:48;;;;;;;22.92;4.90;;;13.00;67.90;;;;;;5100618;28;20036;-60
2021/11/26 12:00:18;;;;;;;18.63;6.00;;;13.80;67.70;;;;;;5100982;28;20024;-61
2021/11/26 12:02:49;;;;;;;20.92;9.98;;;15.20;67.80;;;;;;5100624;28;20020;-61
2021/11/26 12:05:24;;;;;;;23.25;7.28;;;16.90;64.70;;;;;;5100818;28;20474;-61
2021/11/26 12:08:01;;;;;;;16.67;3.80;;;18.60;62.60;;;;;;5100710;28;20123;-60
2021/11/26 12:10:27;;;;;;;22.50;7.32;;;20.10;60.80;;;;;;5100568;28;20043;-59
2021/11/26 12:12:55;;;;;;;19.20;8.23;;;21.30;57.10;;;;;;5100606;28;20024;-60
2021/11/26 12:15:24;;;;;;;20.10;6.63;;;21.90;52.20;;;;;;5100712;28;20399;-60
2021/11/26 12:18:06;;;;;;;17.77;5.93;;;21.60;47.60;;;;;;5100674;28;20106;-59
2021/11/26 12:20:34;;;;;;;17.98;4.72;;;22.10;53.00;;;;;;5100719;28;20022;-59
2021/11/26 12:23:16;;;;;;;21.77;10.07;;;21.90;50.20;;;;;;5100550;28;20364;-60
2021/11/26 12:25:52;;;;;;;20.95;4.97;;;21.70;48.30;;;;;;5100115;28;20095;-57
2021/11/26 12:28:35;;;;;;;21.10;6.47;;;21.80;50.50;;;;;;5100166;28;20471;-57
2021/11/26 12:31:04;;;;;;;28.05;9.23;;;21.70;48.90;;;;;;5099991;28;20142;-57
2021/11/26 12:33:30;;;;;;;41.00;16.88;;;21.80;49.40;;;;;;5100302;28;20417;-58
2021/11/26 12:36:11;;;;;;;26.52;9.57;;;21.70;51.70;;;;;;5100548;28;20066;-57
2021/11/26 12:38:39;;;;;;;20.33;4.15;;;21.20;48.60;;;;;;5100266;28;20399;-58
2021/11/26 12:41:05;;;;;;;24.05;8.43;;;21.10;51.60;;;;;;5099786;28;20024;-57
2021/11/26 12:43:46;;;;;;;20.30;7.00;;;20.60;51.10;;;;;;5099939;28;20032;-57
2021/11/26 12:46:39;;;;;;;21.50;4.55;;;19.90;51.80;;;;;;5100214;28;20046;-57
2021/11/26 12:51:41;;;;;;;21.67;3.88;;;18.00;55.40;;;;;;5100386;28;20020;-59
2021/11/26 12:54:08;;;;;;;20.88;4.50;;;17.40;57.80;;;;;;5100032;28;20025;-59
2021/11/26 12:56:39;;;;;;;20.05;5.70;;;17.30;58.80;;;;;;5099984;28;20024;-58
2021/11/26 12:59:05;;;;;;;37.33;19.33;;;17.60;57.90;;;;;;5100017;28;20490;-57
2021/11/26 13:01:32;;;;;;;20.55;5.05;;;18.40;57.90;;;;;;5098556;28;20021;-57
2021/11/26 13:03:59;;;;;;;25.58;7.38;;;19.40;57.70;;;;;;5099882;28;20028;-58
2021/11/26 13:06:28;;;;;;;46.75;39.30;;;20.30;56.40;;;;;;5099613;28;20516;-58